Time;durP1;ratioP1;P1;durP2;ratioP2;P2;SDS_P1;SDS_P2;PMS_P1;PMS_P2;Temp;Humidity;BMP_temperature;BMP_pressure;BME280_temperature;BME280_humidity;BME280_pressure;Samples;Min_cycle;Max_cycle;Signal;HPM_P1;HPM_P2
2022/10/02 00:01:49;;;;;;;;;;;10.80;99.90;;;;;;4982663;28;20009;-77
2022/10/02 00:04:18;;;;;;;;;;;10.80;99.90;;;;;;4988006;28;20350;-77
2022/10/02 00:06:46;;;;;;;;;;;10.80;99.90;;;;;;4983240;28;20412;-77
2022/10/02 00:09:19;;;;;;;;;;;10.80;99.90;;;;;;4994962;28;20233;-77
2022/10/02 00:11:48;;;;;;;;;;;10.80;99.90;;;;;;4988356;28;20421;-76
2022/10/02 00:14:16;;;;;;;;;;;10.90;99.90;;;;;;4985284;28;19957;-77
2022/10/02 00:16:45;;;;;;;;;;;10.80;99.90;;;;;;4986924;28;19926;-77
2022/10/02 00:19:15;;;;;;;;;;;10.80;99.90;;;;;;4984264;28;21413;-77
2022/10/02 00:21:49;;;;;;;;;;;10.80;99.90;;;;;;4987728;28;20028;-77
2022/10/02 00:24:18;;;;;;;;;;;10.80;99.90;;;;;;4982153;28;19968;-77
2022/10/02 00:26:49;;;;;;;;;;;10.80;99.90;;;;;;4988485;28;20391;-77
2022/10/02 00:29:23;;;;;;;;;;;10.80;99.90;;;;;;4995892;28;19981;-77
2022/10/02 00:31:53;;;;;;;;;;;10.80;99.90;;;;;;4990593;28;19925;-77
2022/10/02 00:34:25;;;;;;;;;;;10.80;99.90;;;;;;4990003;28;20483;-76
2022/10/02 00:36:58;;;;;;;;;;;10.80;99.90;;;;;;4988329;28;19929;-77
2022/10/02 00:39:30;;;;;;;;;;;10.80;99.90;;;;;;4987165;28;19976;-77
2022/10/02 00:42:07;;;;;;;;;;;10.90;99.90;;;;;;4989611;28;19925;-77
2022/10/02 00:44:51;;;;;;;;;;;10.90;99.90;;;;;;4989830;28;20461;-77
2022/10/02 00:47:22;;;;;;;;;;;10.80;99.90;;;;;;4987294;28;19980;-77
2022/10/02 00:49:58;;;;;;;;;;;10.90;99.90;;;;;;4986841;28;19961;-77
2022/10/02 00:52:38;;;;;;;;;;;10.90;99.90;;;;;;4985385;28;19926;-77
2022/10/02 00:55:15;;;;;;;;;;;10.90;99.90;;;;;;4992596;28;19929;-77
2022/10/02 00:57:48;;;;;;;;;;;10.90;99.90;;;;;;4995787;28;20020;-77
2022/10/02 01:00:16;;;;;;;;;;;10.90;99.90;;;;;;4987297;28;19933;-77
2022/10/02 01:02:54;;;;;;;;;;;10.80;99.90;;;;;;4998123;28;19999;-77
2022/10/02 01:05:24;;;;;;;;;;;10.90;99.90;;;;;;4988009;28;19932;-77
2022/10/02 01:07:52;;;;;;;;;;;10.90;99.90;;;;;;4986697;28;20024;-77
2022/10/02 01:10:21;;;;;;;;;;;10.90;99.90;;;;;;4986446;28;19930;-77
2022/10/02 01:12:48;;;;;;;;;;;10.90;99.90;;;;;;4990250;28;19925;-77
2022/10/02 01:15:17;;;;;;;;;;;10.80;99.90;;;;;;4990679;28;19960;-77
2022/10/02 01:17:45;;;;;;;;;;;10.80;99.90;;;;;;4994633;28;19930;-77
2022/10/02 01:20:13;;;;;;;;;;;10.80;99.90;;;;;;4982604;28;20020;-77
2022/10/02 01:22:44;;;;;;;;;;;10.80;99.90;;;;;;4978981;28;19926;-77
2022/10/02 01:25:13;;;;;;;;;;;10.80;99.90;;;;;;4992128;28;20012;-77
2022/10/02 01:27:39;;;;;;;;;;;10.90;99.90;;;;;;4983886;28;20036;-77
2022/10/02 01:30:08;;;;;;;;;;;10.90;99.90;;;;;;4990531;28;19933;-77
2022/10/02 01:32:35;;;;;;;;;;;10.80;99.90;;;;;;4991738;28;20368;-77
2022/10/02 01:35:02;;;;;;;;;;;10.80;99.90;;;;;;4986574;28;20028;-77
2022/10/02 01:37:30;;;;;;;;;;;10.80;99.90;;;;;;4979058;28;20398;-77
2022/10/02 01:39:59;;;;;;;;;;;10.80;99.90;;;;;;4979299;28;20480;-77
2022/10/02 01:42:27;;;;;;;;;;;10.80;99.90;;;;;;4984687;28;19973;-77
2022/10/02 01:44:54;;;;;;;;;;;10.80;99.90;;;;;;4983629;28;19938;-77
2022/10/02 01:47:26;;;;;;;;;;;10.80;99.90;;;;;;4985168;28;20016;-77
2022/10/02 01:49:59;;;;;;;;;;;10.80;99.90;;;;;;4998322;28;20458;-77
2022/10/02 01:52:37;;;;;;;;;;;10.80;99.90;;;;;;4979050;28;19969;-77
2022/10/02 01:55:14;;;;;;;;;;;10.80;99.90;;;;;;4981581;28;20447;-77
2022/10/02 01:57:49;;;;;;;;;;;10.80;99.90;;;;;;4981998;28;20004;-77
2022/10/02 02:00:16;;;;;;;;;;;10.80;99.90;;;;;;4985317;28;20383;-77
2022/10/02 02:02:50;;;;;;;;;;;10.80;99.90;;;;;;4983187;28;19937;-77
2022/10/02 02:05:22;;;;;;;;;;;10.80;99.90;;;;;;4984398;28;19933;-77
2022/10/02 02:07:50;;;;;;;;;;;10.80;99.90;;;;;;4978012;28;19953;-77
2022/10/02 02:10:22;;;;;;;;;;;10.80;99.90;;;;;;4981806;28;20392;-76
2022/10/02 02:12:55;;;;;;;;;;;10.80;99.90;;;;;;4990376;28;19953;-77
2022/10/02 02:15:25;;;;;;;;;;;10.80;99.90;;;;;;4987132;28;19969;-77
2022/10/02 02:17:55;;;;;;;;;;;10.80;99.90;;;;;;4982639;28;20466;-77
2022/10/02 02:20:24;;;;;;;;;;;10.80;99.90;;;;;;4984946;28;20016;-77
2022/10/02 02:22:52;;;;;;;;;;;10.80;99.90;;;;;;4985882;28;19934;-77
2022/10/02 02:25:20;;;;;;;;;;;10.80;99.90;;;;;;4983817;28;19929;-77
2022/10/02 02:27:49;;;;;;;;;;;10.80;99.90;;;;;;4983467;28;19926;-77
2022/10/02 02:30:18;;;;;;;;;;;10.80;99.90;;;;;;4988551;28;19965;-77
2022/10/02 02:32:46;;;;;;;;;;;10.80;99.90;;;;;;4981081;28;20017;-77
2022/10/02 02:35:16;;;;;;;;;;;10.80;99.90;;;;;;4977793;28;20048;-77
2022/10/02 02:37:44;;;;;;;;;;;10.80;99.90;;;;;;4991798;28;20410;-77
2022/10/02 02:40:12;;;;;;;;;;;10.80;99.90;;;;;;4983408;28;19926;-77
2022/10/02 02:42:42;;;;;;;;;;;10.80;99.90;;;;;;4989257;28;20303;-77
2022/10/02 02:45:12;;;;;;;;;;;10.80;99.90;;;;;;4992358;28;20431;-77
2022/10/02 02:47:43;;;;;;;;;;;10.80;99.90;;;;;;4990700;28;20013;-77
2022/10/02 02:50:11;;;;;;;;;;;10.80;99.90;;;;;;4987438;28;20024;-77
2022/10/02 02:52:41;;;;;;;;;;;10.80;99.90;;;;;;4983104;28;20856;-77
2022/10/02 02:55:11;;;;;;;;;;;10.80;99.90;;;;;;4986241;28;19980;-77
2022/10/02 02:57:39;;;;;;;;;;;10.80;99.90;;;;;;4993523;28;19925;-77
2022/10/02 03:00:07;;;;;;;;;;;10.80;99.90;;;;;;4985997;28;19936;-77
2022/10/02 03:02:33;;;;;;;;;;;10.80;99.90;;;;;;4990146;28;19934;-78
2022/10/02 03:05:01;;;;;;;;;;;10.80;99.90;;;;;;4986847;28;20614;-77
2022/10/02 03:07:28;;;;;;;;;;;10.80;99.90;;;;;;4985706;28;19980;-77
2022/10/02 03:10:00;;;;;;;;;;;10.80;99.90;;;;;;4987913;28;19926;-77
2022/10/02 03:12:32;;;;;;;;;;;10.80;99.90;;;;;;4984937;28;19930;-77
2022/10/02 03:15:07;;;;;;;;;;;10.80;99.90;;;;;;4984220;28;19934;-77
2022/10/02 03:17:41;;;;;;;;;;;10.90;99.90;;;;;;4984258;28;19953;-77
2022/10/02 03:20:11;;;;;;;;;;;10.80;99.90;;;;;;4988213;28;19938;-77
2022/10/02 03:22:44;;;;;;;;;;;10.80;99.90;;;;;;4999356;28;20388;-77
2022/10/02 03:25:13;;;;;;;;;;;10.80;99.90;;;;;;4987127;28;19968;-77
2022/10/02 03:27:42;;;;;;;;;;;10.80;99.90;;;;;;4985399;28;19945;-77
2022/10/02 03:30:10;;;;;;;;;;;10.90;99.90;;;;;;4990678;28;19925;-76
2022/10/02 03:32:38;;;;;;;;;;;10.80;99.90;;;;;;4989583;28;20021;-76
2022/10/02 03:35:06;;;;;;;;;;;10.80;99.90;;;;;;4997918;28;19925;-76
2022/10/02 03:37:34;;;;;;;;;;;10.80;99.90;;;;;;4986462;28;19930;-77
2022/10/02 03:40:02;;;;;;;;;;;10.80;99.90;;;;;;4989741;28;19996;-77
2022/10/02 03:42:31;;;;;;;;;;;10.90;99.90;;;;;;4985220;28;20307;-77
2022/10/02 03:44:58;;;;;;;;;;;10.90;99.90;;;;;;4984453;28;19980;-77
2022/10/02 03:47:24;;;;;;;;;;;10.90;99.90;;;;;;4988314;28;20287;-77
2022/10/02 03:49:51;;;;;;;;;;;10.90;99.90;;;;;;4986149;28;19930;-77
2022/10/02 03:52:19;;;;;;;;;;;10.90;99.90;;;;;;4989861;28;19926;-77
2022/10/02 03:54:49;;;;;;;;;;;10.90;99.90;;;;;;4993894;28;20383;-77
2022/10/02 03:57:19;;;;;;;;;;;10.90;99.90;;;;;;4988501;28;20024;-76
2022/10/02 03:59:47;;;;;;;;;;;10.90;99.90;;;;;;4992994;28;19933;-77
2022/10/02 04:02:19;;;;;;;;;;;10.90;99.90;;;;;;4982990;28;20379;-77
2022/10/02 04:04:47;;;;;;;;;;;10.90;99.90;;;;;;4988779;28;19926;-78
2022/10/02 04:07:17;;;;;;;;;;;10.90;99.90;;;;;;4995988;28;19971;-77
2022/10/02 04:09:46;;;;;;;;;;;11.00;99.90;;;;;;4986618;28;20037;-77
2022/10/02 04:12:16;;;;;;;;;;;10.90;99.90;;;;;;4997385;28;19980;-77
2022/10/02 04:14:45;;;;;;;;;;;11.00;99.90;;;;;;4993940;28;19941;-77
2022/10/02 04:17:13;;;;;;;;;;;10.90;99.90;;;;;;4987518;28;20534;-77
2022/10/02 04:19:45;;;;;;;;;;;11.00;99.90;;;;;;4982027;28;20024;-77
2022/10/02 04:22:16;;;;;;;;;;;10.90;99.90;;;;;;4990532;28;19929;-77
2022/10/02 04:24:45;;;;;;;;;;;10.90;99.90;;;;;;4991114;28;20013;-77
2022/10/02 04:27:14;;;;;;;;;;;10.90;99.90;;;;;;4977416;28;20028;-77
2022/10/02 04:29:45;;;;;;;;;;;10.90;99.90;;;;;;4990119;28;19934;-77
2022/10/02 04:32:14;;;;;;;;;;;11.00;99.90;;;;;;5003082;28;19930;-77
2022/10/02 04:34:41;;;;;;;;;;;10.90;99.90;;;;;;4986074;28;19944;-77
2022/10/02 04:37:32;;;;;;;;;;;11.00;99.90;;;;;;4983472;28;19940;-74
2022/10/02 04:40:07;;;;;;;;;;;11.00;99.90;;;;;;4992022;28;19965;-77
2022/10/02 04:42:39;;;;;;;;;;;11.00;99.90;;;;;;4989098;28;20315;-77
2022/10/02 04:45:16;;;;;;;;;;;11.00;99.90;;;;;;4983519;28;20276;-77
2022/10/02 04:47:53;;;;;;;;;;;11.00;99.90;;;;;;4984151;28;19926;-76
2022/10/02 04:50:38;;;;;;;;;;;11.00;99.90;;;;;;4985982;28;20454;-77
2022/10/02 04:53:16;;;;;;;;;;;10.90;99.90;;;;;;4987158;28;19968;-77
2022/10/02 04:55:51;;;;;;;;;;;11.00;99.90;;;;;;4981552;28;20019;-77
2022/10/02 04:58:29;;;;;;;;;;;11.00;99.90;;;;;;4983852;28;19967;-77
2022/10/02 05:01:01;;;;;;;;;;;11.00;99.90;;;;;;4994061;28;20417;-77
2022/10/02 05:03:37;;;;;;;;;;;11.00;99.90;;;;;;4981705;28;20462;-77
2022/10/02 05:06:14;;;;;;;;;;;11.00;99.90;;;;;;4990883;28;20025;-77
2022/10/02 05:08:47;;;;;;;;;;;11.00;99.90;;;;;;4987387;28;20007;-77
2022/10/02 05:11:23;;;;;;;;;;;11.00;99.90;;;;;;4982174;28;19957;-77
2022/10/02 05:14:01;;;;;;;;;;;11.00;99.90;;;;;;4987563;28;19962;-76
2022/10/02 05:16:39;;;;;;;;;;;11.00;99.90;;;;;;4978457;28;19972;-77
2022/10/02 05:19:14;;;;;;;;;;;11.00;99.90;;;;;;4984354;28;20017;-77
2022/10/02 05:21:48;;;;;;;;;;;11.00;99.90;;;;;;4989099;28;20036;-76
2022/10/02 05:24:26;;;;;;;;;;;11.00;99.90;;;;;;4987669;28;20521;-77
2022/10/02 05:27:08;;;;;;;;;;;11.00;99.90;;;;;;4988208;28;20406;-77
2022/10/02 05:29:42;;;;;;;;;;;11.00;99.90;;;;;;4960729;28;19953;-77
2022/10/02 05:32:16;;;;;;;;;;;11.00;99.90;;;;;;4987348;28;19930;-77
2022/10/02 05:34:52;;;;;;;;;;;11.00;99.90;;;;;;4982980;28;20013;-77
2022/10/02 05:37:29;;;;;;;;;;;11.00;99.90;;;;;;4984327;28;19926;-76
2022/10/02 05:40:01;;;;;;;;;;;11.00;99.90;;;;;;4988280;28;19961;-77
2022/10/02 05:42:31;;;;;;;;;;;11.10;99.90;;;;;;5002956;28;19926;-77
2022/10/02 05:45:00;;;;;;;;;;;11.00;99.90;;;;;;4979577;28;19926;-77
2022/10/02 05:47:30;;;;;;;;;;;11.00;99.90;;;;;;4983479;28;19961;-76
2022/10/02 05:49:59;;;;;;;;;;;11.00;99.90;;;;;;4987101;28;19947;-76
2022/10/02 05:52:29;;;;;;;;;;;11.00;99.90;;;;;;4979661;28;19925;-77
2022/10/02 05:54:58;;;;;;;;;;;11.10;99.90;;;;;;4991943;28;19926;-77
2022/10/02 05:57:27;;;;;;;;;;;11.00;99.90;;;;;;4979379;28;19937;-77
2022/10/02 06:00:00;;;;;;;;;;;11.10;99.90;;;;;;4982824;28;19965;-77
2022/10/02 06:02:33;;;;;;;;;;;11.10;99.90;;;;;;4983683;28;20447;-77
2022/10/02 06:05:02;;;;;;;;;;;11.10;99.90;;;;;;4983226;28;20033;-76
2022/10/02 06:07:31;;;;;;;;;;;11.10;99.90;;;;;;4982460;28;20079;-77
2022/10/02 06:10:00;;;;;;;;;;;11.10;99.90;;;;;;4992593;28;19936;-76
2022/10/02 06:12:30;;;;;;;;;;;11.10;99.90;;;;;;4985495;28;19926;-77
2022/10/02 06:15:01;;;;;;;;;;;11.10;99.90;;;;;;4986506;28;19981;-77
2022/10/02 06:17:30;;;;;;;;;;;11.10;99.90;;;;;;4987466;28;20008;-77
2022/10/02 06:20:01;;;;;;;;;;;11.10;99.90;;;;;;4986434;28;20012;-76
2022/10/02 06:22:29;;;;;;;;;;;11.10;99.90;;;;;;4989365;28;19966;-76
2022/10/02 06:24:58;;;;;;;;;;;11.10;99.90;;;;;;4993156;28;19925;-77
2022/10/02 06:27:38;;;;;;;;;;;11.10;99.90;;;;;;4989081;28;19926;-77
2022/10/02 06:30:06;;;;;;;;;;;11.10;99.90;;;;;;4989527;28;19937;-77
2022/10/02 06:32:37;;;;;;;;;;;11.10;99.90;;;;;;4987140;28;19933;-77
2022/10/02 06:35:06;;;;;;;;;;;11.10;99.90;;;;;;4989504;28;19926;-76
2022/10/02 06:37:36;;;;;;;;;;;11.10;99.90;;;;;;4986925;28;19929;-76
2022/10/02 06:40:10;;;;;;;;;;;11.10;99.90;;;;;;4984730;28;19933;-77
2022/10/02 06:42:43;;;;;;;;;;;11.10;99.90;;;;;;5005123;28;19930;-77
2022/10/02 06:45:15;;;;;;;;;;;11.10;99.90;;;;;;4991701;28;20032;-77
2022/10/02 06:47:52;;;;;;;;;;;11.10;99.90;;;;;;4982284;28;19933;-77
2022/10/02 06:50:26;;;;;;;;;;;11.10;99.90;;;;;;4991234;28;19961;-77
2022/10/02 06:52:56;;;;;;;;;;;11.10;99.90;;;;;;4990439;28;19941;-77
2022/10/02 06:55:30;;;;;;;;;;;11.10;99.90;;;;;;4986572;28;20585;-77
2022/10/02 06:58:04;;;;;;;;;;;11.10;99.90;;;;;;4984497;28;19930;-77
2022/10/02 07:00:32;;;;;;;;;;;11.10;99.90;;;;;;4990472;28;19925;-77
2022/10/02 07:03:22;;;;;;;;;;;11.10;99.90;;;;;;4977678;28;20857;-77
2022/10/02 07:05:53;;;;;;;;;;;11.20;99.90;;;;;;4986809;28;19926;-77
2022/10/02 07:08:27;;;;;;;;;;;11.20;99.90;;;;;;4989332;28;19933;-76
2022/10/02 07:10:59;;;;;;;;;;;11.20;99.90;;;;;;4989080;28;19930;-77
2022/10/02 07:13:34;;;;;;;;;;;11.20;99.90;;;;;;4983675;28;20288;-77
2022/10/02 07:16:08;;;;;;;;;;;11.20;99.90;;;;;;4990344;28;19926;-77
2022/10/02 07:18:42;;;;;;;;;;;11.20;99.90;;;;;;4981376;28;20016;-77
2022/10/02 07:21:14;;;;;;;;;;;11.20;99.90;;;;;;4994049;28;19937;-77
2022/10/02 07:23:53;;;;;;;;;;;11.20;99.90;;;;;;4991697;28;19925;-77
2022/10/02 07:26:27;;;;;;;;;;;11.20;99.90;;;;;;4988531;28;20069;-77
2022/10/02 07:28:57;;;;;;;;;;;11.20;99.90;;;;;;4987522;28;19988;-77
2022/10/02 07:31:28;;;;;;;;;;;11.20;99.90;;;;;;4987846;28;20364;-76
2022/10/02 07:34:02;;;;;;;;;;;11.20;99.90;;;;;;4982855;28;19968;-77
2022/10/02 07:36:33;;;;;;;;;;;11.20;99.90;;;;;;4988802;28;20021;-77
2022/10/02 07:39:05;;;;;;;;;;;11.30;99.90;;;;;;4991807;28;23875;-77
2022/10/02 07:41:47;;;;;;;;;;;11.20;99.90;;;;;;4989711;28;20264;-77
2022/10/02 07:44:21;;;;;;;;;;;11.20;99.90;;;;;;4992757;28;20006;-76
2022/10/02 07:46:54;;;;;;;;;;;11.30;99.90;;;;;;4984808;28;20387;-77
2022/10/02 07:49:35;;;;;;;;;;;11.30;99.90;;;;;;4979479;28;20334;-77
2022/10/02 07:52:07;;;;;;;;;;;11.30;99.90;;;;;;4990267;28;19932;-77
2022/10/02 07:54:53;;;;;;;;;;;11.30;99.90;;;;;;4984522;28;20377;-77
2022/10/02 07:57:27;;;;;;;;;;;11.30;99.90;;;;;;4986873;28;20340;-77
2022/10/02 07:59:57;;;;;;;;;;;11.40;99.90;;;;;;5007733;28;20345;-77
2022/10/02 08:02:28;;;;;;;;;;;11.40;99.90;;;;;;4990843;28;20380;-77
2022/10/02 08:04:57;;;;;;;;;;;11.40;99.90;;;;;;4981966;28;19953;-77
2022/10/02 08:07:24;;;;;;;;;;;11.40;99.90;;;;;;4991460;28;20882;-77
2022/10/02 08:09:52;;;;;;;;;;;11.50;99.90;;;;;;4992222;28;19981;-77
2022/10/02 08:12:22;;;;;;;;;;;11.50;99.90;;;;;;4986882;28;19934;-77
2022/10/02 08:14:51;;;;;;;;;;;11.50;99.90;;;;;;4981153;28;20016;-77
2022/10/02 08:17:21;;;;;;;;;;;11.50;99.90;;;;;;4982427;28;19933;-77
2022/10/02 08:19:50;;;;;;;;;;;11.50;99.90;;;;;;4987895;28;19930;-77
2022/10/02 08:22:23;;;;;;;;;;;11.60;99.90;;;;;;4989157;28;19933;-77
2022/10/02 08:24:52;;;;;;;;;;;11.60;99.90;;;;;;4983204;28;20003;-77
2022/10/02 08:27:21;;;;;;;;;;;11.60;99.90;;;;;;4985405;28;20019;-77
2022/10/02 08:29:51;;;;;;;;;;;11.60;99.90;;;;;;4990785;28;19936;-77
2022/10/02 08:32:17;;;;;;;;;;;11.60;99.90;;;;;;4982007;28;20156;-77
2022/10/02 08:34:45;;;;;;;;;;;11.60;99.90;;;;;;4984437;28;19965;-77
2022/10/02 08:37:23;;;;;;;;;;;11.70;99.90;;;;;;4990505;28;19925;-77
2022/10/02 08:40:00;;;;;;;;;;;11.70;99.90;;;;;;4993446;28;20446;-77
2022/10/02 08:42:46;;;;;;;;;;;11.70;99.90;;;;;;4987161;28;20011;-77
2022/10/02 08:45:33;;;;;;;;;;;11.80;99.90;;;;;;4988246;28;20019;-77
2022/10/02 08:48:30;;;;;;;;;;;11.80;99.90;;;;;;4984816;28;19936;-77
2022/10/02 08:51:10;;;;;;;;;;;11.80;99.90;;;;;;4981383;28;19968;-77
2022/10/02 08:53:52;;;;;;;;;;;11.80;99.90;;;;;;4989296;28;19926;-77
2022/10/02 08:56:25;;;;;;;;;;;11.90;99.90;;;;;;4987313;28;19933;-76
2022/10/02 08:59:12;;;;;;;;;;;11.90;99.90;;;;;;4983908;28;20453;-77
2022/10/02 09:01:49;;;;;;;;;;;11.90;99.90;;;;;;4987773;28;20405;-77
2022/10/02 09:04:30;;;;;;;;;;;11.90;99.90;;;;;;4987406;28;19980;-77
2022/10/02 09:07:25;;;;;;;;;;;12.00;99.90;;;;;;4986034;28;19927;-77
2022/10/02 09:10:06;;;;;;;;;;;12.00;99.90;;;;;;4986216;28;19983;-77
2022/10/02 09:12:57;;;;;;;;;;;12.10;99.90;;;;;;4990386;28;20027;-77
2022/10/02 09:15:32;;;;;;;;;;;12.10;99.90;;;;;;4983500;28;20008;-77
2022/10/02 09:18:09;;;;;;;;;;;12.10;99.90;;;;;;4982853;28;19965;-77
2022/10/02 09:20:40;;;;;;;;;;;12.10;99.90;;;;;;4982932;28;20017;-77
2022/10/02 09:23:24;;;;;;;;;;;12.20;99.90;;;;;;5004632;28;19934;-77
2022/10/02 09:25:55;;;;;;;;;;;12.20;99.90;;;;;;4987340;28;19930;-78
2022/10/02 09:28:40;;;;;;;;;;;12.30;99.90;;;;;;4985137;28;19926;-77
2022/10/02 09:31:34;;;;;;;;;;;12.30;99.90;;;;;;4984775;28;20016;-77
2022/10/02 09:34:19;;;;;;;;;;;12.30;99.90;;;;;;4987031;28;19940;-77
2022/10/02 09:37:01;;;;;;;;;;;12.40;99.90;;;;;;4989533;28;19961;-77
2022/10/02 09:39:50;;;;;;;;;;;12.40;99.90;;;;;;4994898;28;19926;-77
2022/10/02 09:42:38;;;;;;;;;;;12.40;99.90;;;;;;4995850;28;19929;-77
2022/10/02 09:45:22;;;;;;;;;;;12.50;99.90;;;;;;4985613;28;19926;-78
2022/10/02 09:48:09;;;;;;;;;;;12.50;99.90;;;;;;4986924;28;20387;-77
2022/10/02 09:50:54;;;;;;;;;;;12.60;99.90;;;;;;4985595;28;20004;-78
2022/10/02 09:53:38;;;;;;;;;;;12.60;99.90;;;;;;4977412;28;20544;-77
2022/10/02 09:56:23;;;;;;;;;;;12.70;99.90;;;;;;4988003;28;20387;-77
2022/10/02 09:59:17;;;;;;;;;;;12.70;99.90;;;;;;4983339;28;20374;-78
2022/10/02 10:02:00;;;;;;;;;;;12.80;99.90;;;;;;4985594;28;19926;-77
2022/10/02 10:04:38;;;;;;;;;;;12.80;99.90;;;;;;4988698;28;19926;-77
2022/10/02 10:07:32;;;;;;;;;;;12.80;99.90;;;;;;4984306;28;20012;-78
2022/10/02 10:10:09;;;;;;;;;;;12.80;99.90;;;;;;4934817;28;19926;-77
2022/10/02 10:12:51;;;;;;;;;;;13.00;99.90;;;;;;4987846;28;19961;-77
2022/10/02 10:15:46;;;;;;;;;;;13.00;99.90;;;;;;4965128;28;20020;-77
2022/10/02 10:18:41;;;;;;;;;;;13.10;99.90;;;;;;4990172;28;20013;-77
2022/10/02 10:21:27;;;;;;;;;;;13.10;99.90;;;;;;4985120;28;19926;-77
2022/10/02 10:24:02;;;;;;;;;;;13.20;99.90;;;;;;4980836;28;20032;-77
2022/10/02 10:26:59;;;;;;;;;;;13.30;99.90;;;;;;4985867;28;20025;-77
2022/10/02 10:29:47;;;;;;;;;;;13.30;99.90;;;;;;4989661;28;20035;-78
2022/10/02 10:32:33;;;;;;;;;;;13.40;99.90;;;;;;4984480;28;19933;-77
2022/10/02 10:35:17;;;;;;;;;;;13.50;99.90;;;;;;4978514;28;19926;-77
2022/10/02 10:40:47;;;;;;;;;;;13.50;99.90;;;;;;4986629;28;20292;-77
2022/10/02 10:43:36;;;;;;;;;;;13.60;99.90;;;;;;4980522;28;20381;-77
2022/10/02 10:46:23;;;;;;;;;;;13.60;99.90;;;;;;4985130;28;20364;-78
2022/10/02 10:49:01;;;;;;;;;;;13.70;99.90;;;;;;4972137;28;19937;-78
2022/10/02 10:51:32;;;;;;;;;;;13.70;99.90;;;;;;4987672;28;19969;-77
2022/10/02 10:54:08;;;;;;;;;;;13.80;99.90;;;;;;4984792;28;20273;-77
2022/10/02 10:56:37;;;;;;;;;;;13.80;99.90;;;;;;4977935;28;19930;-78
2022/10/02 10:59:17;;;;;;;;;;;13.80;99.90;;;;;;4989155;28;19929;-78
2022/10/02 11:01:50;;;;;;;;;;;13.90;99.90;;;;;;4988955;28;19929;-77
2022/10/02 11:04:28;;;;;;;;;;;13.90;99.90;;;;;;4982904;28;20357;-77
2022/10/02 11:09:38;;;;;;;;;;;14.00;99.90;;;;;;4976055;28;19952;-77
2022/10/02 11:12:15;;;;;;;;;;;14.10;99.90;;;;;;4983881;28;19934;-77
2022/10/02 11:14:51;;;;;;;;;;;14.10;99.90;;;;;;4975091;28;20017;-78
2022/10/02 11:17:31;;;;;;;;;;;14.10;99.90;;;;;;4974283;28;20472;-77
2022/10/02 11:20:05;;;;;;;;;;;14.10;99.90;;;;;;4963621;28;19999;-77
2022/10/02 11:22:52;;;;;;;;;;;14.20;99.90;;;;;;4968066;28;20281;-77
2022/10/02 11:25:27;;;;;;;;;;;14.20;99.90;;;;;;4961942;28;19942;-77
2022/10/02 11:28:05;;;;;;;;;;;14.20;99.90;;;;;;4974128;28;19999;-78
2022/10/02 11:30:35;;;;;;;;;;;14.30;99.90;;;;;;4973495;28;20376;-81
2022/10/02 11:33:18;;;;;;;;;;;14.40;99.90;;;;;;4967080;28;20416;-78
2022/10/02 11:35:55;;;;;;;;;;;14.30;99.90;;;;;;4971796;28;20404;-78
2022/10/02 11:38:37;;;;;;;;;;;14.30;99.90;;;;;;4981744;28;20388;-78
2022/10/02 11:41:13;;;;;;;;;;;14.40;99.90;;;;;;4967650;28;19930;-78
2022/10/02 11:43:47;;;;;;;;;;;14.40;99.90;;;;;;4970567;28;20012;-78
2022/10/02 11:46:26;;;;;;;;;;;14.50;99.90;;;;;;4970818;28;20514;-78
2022/10/02 11:49:11;;;;;;;;;;;14.50;99.90;;;;;;4960699;28;19940;-78
2022/10/02 11:51:49;;;;;;;;;;;14.50;99.90;;;;;;4994006;28;20373;-78
2022/10/02 11:54:23;;;;;;;;;;;14.60;99.90;;;;;;4976289;28;20440;-78
2022/10/02 11:57:04;;;;;;;;;;;14.70;99.90;;;;;;4969136;28;19926;-78
2022/10/02 11:59:42;;;;;;;;;;;14.70;99.90;;;;;;4969690;28;22582;-76
2022/10/02 12:02:11;;;;;;;;;;;14.70;99.90;;;;;;4968129;28;20013;-78
2022/10/02 12:04:42;;;;;;;;;;;14.80;99.90;;;;;;4971049;28;19937;-78
2022/10/02 12:07:26;;;;;;;;;;;14.80;99.90;;;;;;4977588;28;19941;-78
2022/10/02 12:09:59;;;;;;;;;;;14.80;99.90;;;;;;4976990;28;19977;-79
2022/10/02 12:12:33;;;;;;;;;;;14.80;99.90;;;;;;4970759;28;19932;-79
2022/10/02 12:15:03;;;;;;;;;;;14.80;99.90;;;;;;4967783;28;19933;-78
2022/10/02 12:17:51;;;;;;;;;;;14.80;99.90;;;;;;4970117;28;20471;-76
2022/10/02 12:28:54;;;;;;;;;;;15.00;99.90;;;;;;4967250;28;19956;-78
2022/10/02 12:31:25;;;;;;;;;;;15.00;99.90;;;;;;4964052;28;19934;-77
2022/10/02 12:33:58;;;;;;;;;;;15.10;99.90;;;;;;4965159;28;20133;-79
2022/10/02 12:36:33;;;;;;;;;;;15.10;99.90;;;;;;4975545;28;20422;-78
2022/10/02 12:39:20;;;;;;;;;;;15.00;99.90;;;;;;4977528;28;20309;-78
2022/10/02 12:42:02;;;;;;;;;;;15.00;99.90;;;;;;4972671;28;20327;-78
2022/10/02 12:44:36;;;;;;;;;;;15.00;99.90;;;;;;4983911;28;19961;-77
2022/10/02 12:47:21;;;;;;;;;;;15.10;99.90;;;;;;4968204;28;19926;-77
2022/10/02 12:49:52;;;;;;;;;;;15.10;99.90;;;;;;4969887;28;19925;-78
2022/10/02 12:52:31;;;;;;;;;;;15.10;99.90;;;;;;4969631;28;20402;-78
2022/10/02 12:55:22;;;;;;;;;;;15.10;99.90;;;;;;4970835;28;20419;-77
2022/10/02 12:57:59;;;;;;;;;;;15.10;99.90;;;;;;4893914;28;20392;-77
2022/10/02 13:00:31;;;;;;;;;;;15.20;99.90;;;;;;4968441;28;19952;-77
2022/10/02 13:03:30;;;;;;;;;;;15.10;99.90;;;;;;4978039;28;20027;-77
2022/10/02 13:06:16;;;;;;;;;;;15.20;99.90;;;;;;4910327;29;19962;-77
2022/10/02 13:09:02;;;;;;;;;;;15.20;99.90;;;;;;4943524;28;19969;-77
2022/10/02 13:11:35;;;;;;;;;;;15.20;99.90;;;;;;4976251;28;20018;-77
2022/10/02 13:14:11;;;;;;;;;;;15.20;99.90;;;;;;4974568;28;19926;-77
2022/10/02 13:16:55;;;;;;;;;;;15.20;99.90;;;;;;4967937;28;19934;-77
2022/10/02 13:19:29;;;;;;;;;;;15.20;99.90;;;;;;4946621;28;19933;-76
2022/10/02 13:22:00;;;;;;;;;;;15.20;99.90;;;;;;4978347;28;19938;-77
2022/10/02 13:24:37;;;;;;;;;;;15.20;99.90;;;;;;4970465;28;20041;-81
2022/10/02 13:27:13;;;;;;;;;;;15.20;99.90;;;;;;4968620;28;19934;-76
2022/10/02 13:29:45;;;;;;;;;;;15.20;99.90;;;;;;4960299;28;19941;-77
2022/10/02 13:32:42;;;;;;;;;;;15.20;99.90;;;;;;4975543;28;19936;-77
2022/10/02 13:35:21;;;;;;;;;;;15.20;99.90;;;;;;4897294;29;19950;-77
2022/10/02 13:37:55;;;;;;;;;;;15.20;99.90;;;;;;4964110;28;20012;-77
2022/10/02 13:40:26;;;;;;;;;;;15.20;99.90;;;;;;4974717;28;19930;-77
2022/10/02 13:43:08;;;;;;;;;;;15.20;99.90;;;;;;4975909;28;19926;-77
2022/10/02 13:45:38;;;;;;;;;;;15.20;99.90;;;;;;4951267;28;19930;-77
2022/10/02 13:48:13;;;;;;;;;;;15.20;99.90;;;;;;4972812;28;19926;-77
2022/10/02 13:50:45;;;;;;;;;;;15.20;99.90;;;;;;4975530;28;19926;-77
2022/10/02 13:53:31;;;;;;;;;;;15.20;99.90;;;;;;4976598;28;19932;-77
2022/10/02 13:56:05;;;;;;;;;;;15.10;99.90;;;;;;4969581;28;19934;-78
2022/10/02 13:58:46;;;;;;;;;;;15.20;99.90;;;;;;4973019;28;19984;-78
2022/10/02 14:01:18;;;;;;;;;;;15.10;99.90;;;;;;4978496;28;19930;-77
2022/10/02 14:04:06;;;;;;;;;;;15.10;99.90;;;;;;4985434;28;20023;-77
2022/10/02 14:06:35;;;;;;;;;;;15.10;99.90;;;;;;4955670;28;20004;-77
2022/10/02 14:09:14;;;;;;;;;;;15.10;99.90;;;;;;4970913;28;20012;-78
2022/10/02 14:11:47;;;;;;;;;;;15.10;99.90;;;;;;4962569;28;20033;-77
2022/10/02 14:14:20;;;;;;;;;;;15.10;99.90;;;;;;4970687;28;19926;-77
2022/10/02 14:16:55;;;;;;;;;;;15.10;99.90;;;;;;4970502;28;19952;-77
2022/10/02 14:19:28;;;;;;;;;;;15.10;99.90;;;;;;4968893;28;19984;-77
2022/10/02 14:22:01;;;;;;;;;;;15.10;99.90;;;;;;4977608;28;19932;-78
2022/10/02 14:27:24;;;;;;;;;;;15.10;99.90;;;;;;4971078;28;19960;-77
2022/10/02 14:29:55;;;;;;;;;;;15.10;99.90;;;;;;4973745;28;20105;-77
2022/10/02 14:32:37;;;;;;;;;;;15.00;99.90;;;;;;4982400;28;19973;-77
2022/10/02 14:35:26;;;;;;;;;;;15.10;99.90;;;;;;4972392;28;20443;-77
2022/10/02 14:38:02;;;;;;;;;;;15.10;99.90;;;;;;4985588;28;20021;-77
2022/10/02 14:40:33;;;;;;;;;;;15.10;99.90;;;;;;4985325;28;19964;-77
2022/10/02 14:43:08;;;;;;;;;;;15.00;99.90;;;;;;4980331;28;20032;-77
2022/10/02 14:45:56;;;;;;;;;;;15.00;99.90;;;;;;4982866;28;19925;-77
2022/10/02 14:48:32;;;;;;;;;;;15.00;99.90;;;;;;4970965;28;20009;-77
2022/10/02 14:51:07;;;;;;;;;;;15.00;99.90;;;;;;4979888;28;20597;-77
2022/10/02 14:53:49;;;;;;;;;;;15.00;99.90;;;;;;4985825;28;19926;-77
2022/10/02 14:56:28;;;;;;;;;;;15.10;99.90;;;;;;4982827;28;19992;-77
2022/10/02 14:59:01;;;;;;;;;;;15.00;99.90;;;;;;4973538;28;19930;-77
2022/10/02 15:01:28;;;;;;;;;;;15.00;99.90;;;;;;4981783;28;19988;-77
2022/10/02 15:04:13;;;;;;;;;;;15.00;99.90;;;;;;4982179;28;19941;-77
2022/10/02 15:06:57;;;;;;;;;;;14.90;99.90;;;;;;4974449;28;19961;-77
2022/10/02 15:09:29;;;;;;;;;;;15.00;99.90;;;;;;4974419;28;19980;-77
2022/10/02 15:12:00;;;;;;;;;;;15.00;99.90;;;;;;4978848;28;19996;-77
2022/10/02 15:14:33;;;;;;;;;;;14.90;99.90;;;;;;4978229;28;19925;-77
2022/10/02 15:19:49;;;;;;;;;;;14.90;99.90;;;;;;4982211;28;19922;-77